createdAt,value
2023-04-11T00:04:46.754Z,69.16
2023-04-11T00:09:51.460Z,69.55
2023-04-11T00:14:55.611Z,69.46
2023-04-11T00:20:01.829Z,69.41
2023-04-11T00:25:07.168Z,69.24
2023-04-11T00:30:10.990Z,69.49
2023-04-11T00:35:14.141Z,69.98
2023-04-11T00:40:18.902Z,69.32
2023-04-11T00:45:22.097Z,69.31
2023-04-11T00:50:25.425Z,69.26
2023-04-11T00:55:30.983Z,69.29
2023-04-11T01:00:35.589Z,69.91
2023-04-11T01:05:39.290Z,69.43
2023-04-11T01:10:44.339Z,69.43
2023-04-11T01:15:47.468Z,70.19
2023-04-11T01:20:51.273Z,70.64
2023-04-11T01:25:55.978Z,70.16
2023-04-11T01:30:59.131Z,69.20
2023-04-11T01:36:02.325Z,68.96
2023-04-11T01:41:09.535Z,69.15
2023-04-11T01:46:13.061Z,69.78
2023-04-11T01:51:16.186Z,70.41
2023-04-11T01:56:20.693Z,71.10
2023-04-11T02:01:24.080Z,71.67
2023-04-11T02:06:27.838Z,71.44
2023-04-11T02:11:32.417Z,71.23
2023-04-11T02:16:37.721Z,71.87
2023-04-11T02:21:40.883Z,71.67
2023-04-11T02:26:45.506Z,71.88
2023-04-11T02:31:50.049Z,72.08
2023-04-11T02:36:53.380Z,71.74
2023-04-11T02:41:58.455Z,71.70
2023-04-11T02:47:01.628Z,71.32
2023-04-11T02:52:05.364Z,71.91
2023-04-11T02:57:09.935Z,71.42
2023-04-11T03:02:13.132Z,71.04
2023-04-11T03:07:16.362Z,70.66
2023-04-11T03:12:21.319Z,71.41
2023-04-11T03:17:24.189Z,71.91
2023-04-11T03:22:27.360Z,70.97
2023-04-11T03:27:31.891Z,71.27
2023-04-11T03:32:35.059Z,72.26
2023-04-11T03:37:38.240Z,72.09
2023-04-11T03:42:42.822Z,71.50
2023-04-11T03:47:46.000Z,71.56
2023-04-11T03:52:49.277Z,71.43
2023-04-11T03:57:53.829Z,71.61
2023-04-11T04:02:57.189Z,71.88
2023-04-11T04:08:00.534Z,71.55
2023-04-11T04:13:05.122Z,72.03
2023-04-11T04:18:08.297Z,72.25
2023-04-11T04:23:14.094Z,73.04
2023-04-11T04:28:22.597Z,72.71
2023-04-11T04:33:27.549Z,72.54
2023-04-11T04:38:31.011Z,73.43
2023-04-11T04:43:36.113Z,72.59
2023-04-11T04:48:39.203Z,72.71
2023-04-11T04:53:42.804Z,72.11
2023-04-11T04:58:47.533Z,72.50
2023-04-11T05:03:59.598Z,72.53
2023-04-11T05:09:06.272Z,72.67
2023-04-11T05:14:11.176Z,72.81
2023-04-11T05:19:14.305Z,73.01
2023-04-11T05:24:17.503Z,73.18
2023-04-11T05:29:22.351Z,73.23
2023-04-11T05:34:25.632Z,72.54
2023-04-11T05:39:28.933Z,71.97
2023-04-11T05:44:33.577Z,71.68
2023-04-11T05:49:36.818Z,71.93
2023-04-11T05:54:39.994Z,72.15
2023-04-11T05:59:44.653Z,72.69
2023-04-11T06:04:47.955Z,72.77
2023-04-11T06:09:51.668Z,73.03
2023-04-11T06:14:56.295Z,72.84
2023-04-11T06:19:59.753Z,73.47
2023-04-11T06:25:03.100Z,73.32
2023-04-11T06:30:10.464Z,73.26
2023-04-11T06:35:13.935Z,73.54
2023-04-11T06:40:17.505Z,73.48
2023-04-11T06:45:22.182Z,73.39
2023-04-11T06:50:25.465Z,73.86
2023-04-11T06:55:28.655Z,73.43
2023-04-11T07:00:33.335Z,73.41
2023-04-11T07:05:39.037Z,72.90
2023-04-11T07:10:42.842Z,72.99
2023-04-11T07:15:47.543Z,72.43
2023-04-11T07:20:52.746Z,73.22
2023-04-11T07:25:56.008Z,73.68
2023-04-11T07:31:01.003Z,73.14
2023-04-11T07:36:04.880Z,72.71
2023-04-11T07:41:09.699Z,72.88
2023-04-11T07:46:15.347Z,72.35
2023-04-11T07:51:19.040Z,71.78
2023-04-11T07:56:22.391Z,71.80
2023-04-11T08:01:27.608Z,71.86
2023-04-11T08:06:31.735Z,71.92
2023-04-11T08:11:35.299Z,71.97
2023-04-11T08:16:40.012Z,72.46
2023-04-11T08:21:43.354Z,72.63
2023-04-11T08:26:46.744Z,72.23
2023-04-11T08:31:51.418Z,71.50
2023-04-11T08:36:54.630Z,71.01
2023-04-11T08:41:57.890Z,71.23
2023-04-11T08:47:02.527Z,70.48
2023-04-11T08:52:06.008Z,70.83
2023-04-11T08:57:09.232Z,70.96
2023-04-11T09:02:13.988Z,70.36
2023-04-11T09:07:17.477Z,70.84
2023-04-11T09:12:29.600Z,69.60
2023-04-11T09:17:42.509Z,68.65
2023-04-11T09:22:46.108Z,68.90
2023-04-11T09:27:49.744Z,67.66
2023-04-11T09:32:55.682Z,67.17
2023-04-11T09:38:00.808Z,67.42
2023-04-11T09:43:05.382Z,66.73
2023-04-11T09:48:10.132Z,66.04
2023-04-11T09:53:13.731Z,66.27
2023-04-11T09:58:17.788Z,65.69
2023-04-11T10:03:24.032Z,58.32
2023-04-11T10:08:32.821Z,53.82
2023-04-11T10:13:43.015Z,49.79
2023-04-11T10:19:21.960Z,46.73
2023-04-11T10:24:26.872Z,44.45
2023-04-11T10:29:51.395Z,39.59
2023-04-11T10:35:31.218Z,36.80
2023-04-11T10:40:36.126Z,38.00
2023-04-11T10:45:40.486Z,36.33
2023-04-11T10:50:45.414Z,36.32
2023-04-11T10:55:51.484Z,36.54
2023-04-11T11:01:26.321Z,36.06
2023-04-11T11:06:47.249Z,35.97
2023-04-11T11:12:08.805Z,34.26
2023-04-11T11:17:13.907Z,34.36
2023-04-11T11:22:17.688Z,33.73
2023-04-11T11:27:23.005Z,34.11
2023-04-11T11:32:29.063Z,33.61
2023-04-11T11:37:32.555Z,35.28
2023-04-11T11:42:37.783Z,35.11
2023-04-11T11:47:44.520Z,36.08
2023-04-11T11:52:49.003Z,36.96
2023-04-11T11:57:53.654Z,37.51
2023-04-11T12:02:59.874Z,37.29
2023-04-11T12:08:04.938Z,37.11
2023-04-11T12:13:18.056Z,37.68
2023-04-11T12:18:25.246Z,36.91
2023-04-11T12:23:28.364Z,37.49
2023-04-11T12:28:32.889Z,37.72
2023-04-11T12:33:36.252Z,38.34
2023-04-11T12:38:39.465Z,38.30
2023-04-11T12:43:44.000Z,37.20
2023-04-11T12:48:47.136Z,38.68
2023-04-11T12:53:52.889Z,38.17
2023-04-11T12:59:08.514Z,38.58
2023-04-11T13:04:15.839Z,38.97
2023-04-11T13:09:21.962Z,38.88
2023-04-11T13:14:32.949Z,39.46
2023-04-11T13:19:40.513Z,40.04
2023-04-11T13:24:43.673Z,41.17
2023-04-11T13:29:55.364Z,42.39
2023-04-11T13:35:03.395Z,42.69
2023-04-11T13:40:14.482Z,42.41
2023-04-11T13:45:21.783Z,42.94
2023-04-11T13:50:28.045Z,43.72
2023-04-11T13:55:32.332Z,43.70
2023-04-11T14:00:37.122Z,44.06
2023-04-11T14:05:40.543Z,44.52
2023-04-11T14:10:44.303Z,44.60
2023-04-11T14:15:54.779Z,44.71
2023-04-11T14:21:08.960Z,44.14
2023-04-11T14:26:12.267Z,43.86
2023-04-11T14:31:17.049Z,44.74
2023-04-11T14:36:20.442Z,44.72
2023-04-11T14:41:23.768Z,44.24
2023-04-11T14:46:28.651Z,44.07
2023-04-11T14:51:31.937Z,45.15
2023-04-11T14:56:35.223Z,44.69
2023-04-11T15:01:40.533Z,46.08
2023-04-11T15:06:43.932Z,45.66
2023-04-11T15:11:47.454Z,45.73
2023-04-11T15:16:52.107Z,45.68
2023-04-11T15:21:55.249Z,44.86
2023-04-11T15:26:58.414Z,45.62
2023-04-11T15:32:04.547Z,46.37
2023-04-11T15:37:11.525Z,45.48
2023-04-11T15:42:14.661Z,45.12
2023-04-11T15:47:19.285Z,45.39
2023-04-11T15:52:22.512Z,46.54
2023-04-11T15:57:27.516Z,47.01
2023-04-11T16:02:32.233Z,46.64
2023-04-11T16:07:35.524Z,47.53
2023-04-11T16:12:38.660Z,48.44
2023-04-11T16:17:43.184Z,47.90
2023-04-11T16:22:47.466Z,48.25
2023-04-11T16:27:51.708Z,48.42
2023-04-11T16:32:56.576Z,49.70
2023-04-11T16:37:59.768Z,49.12
2023-04-11T16:43:02.906Z,49.43
2023-04-11T16:48:09.515Z,50.10
2023-04-11T16:53:12.648Z,49.72
2023-04-11T16:58:15.774Z,50.39
2023-04-11T17:03:21.864Z,51.36
2023-04-11T17:08:26.600Z,51.44
2023-04-11T17:13:29.621Z,52.32
2023-04-11T17:18:34.177Z,51.84
2023-04-11T17:23:56.590Z,52.08
2023-04-11T17:29:00.118Z,51.87
2023-04-11T17:34:04.651Z,51.96
2023-04-11T17:39:07.899Z,52.15
2023-04-11T17:44:11.076Z,52.50
2023-04-11T17:49:16.381Z,52.24
2023-04-11T17:54:19.543Z,52.10
2023-04-11T17:59:24.160Z,52.19
2023-04-11T18:04:29.124Z,53.59
2023-04-11T18:09:32.394Z,53.56
2023-04-11T18:14:35.573Z,53.55
2023-04-11T18:19:40.065Z,53.96
2023-04-11T18:24:43.206Z,53.99
2023-04-11T18:29:47.127Z,53.77
2023-04-11T18:34:52.150Z,54.00
2023-04-11T18:39:55.625Z,54.01
2023-04-11T18:45:00.186Z,54.65
2023-04-11T18:50:05.701Z,55.04
2023-04-11T18:55:10.151Z,56.09
2023-04-11T19:00:18.551Z,56.21
2023-04-11T19:05:25.417Z,56.69
2023-04-11T19:10:28.898Z,57.43
2023-04-11T19:15:32.046Z,57.25
2023-04-11T19:20:38.809Z,57.06
2023-04-11T19:25:42.931Z,58.17
2023-04-11T19:30:46.043Z,57.79
2023-04-11T19:35:50.616Z,58.40
2023-04-11T19:40:53.828Z,58.60
2023-04-11T19:45:57.041Z,58.97
2023-04-11T19:51:02.870Z,58.81
2023-04-11T19:56:08.013Z,58.74
2023-04-11T20:01:11.178Z,58.82
2023-04-11T20:06:15.800Z,58.65
2023-04-11T20:11:20.413Z,59.03
2023-04-11T20:16:25.299Z,58.82
2023-04-11T20:21:29.907Z,59.22
2023-04-11T20:26:33.093Z,58.91
2023-04-11T20:31:36.405Z,58.31
2023-04-11T20:36:40.951Z,59.02
2023-04-11T20:41:44.070Z,59.34
2023-04-11T20:46:48.112Z,59.30
2023-04-11T20:51:53.774Z,58.99
2023-04-11T20:56:57.020Z,59.11
2023-04-11T21:02:00.401Z,59.47
2023-04-11T21:07:05.003Z,60.45
2023-04-11T21:12:08.359Z,60.91
2023-04-11T21:17:11.490Z,61.15
2023-04-11T21:22:16.063Z,60.50
2023-04-11T21:27:19.155Z,61.11
2023-04-11T21:32:22.296Z,61.50
2023-04-11T21:37:26.909Z,61.75
2023-04-11T21:42:30.111Z,61.18
2023-04-11T21:47:33.284Z,62.15
2023-04-11T21:52:37.837Z,63.10
2023-04-11T21:57:41.060Z,63.04
2023-04-11T22:02:44.441Z,62.14
2023-04-11T22:07:51.517Z,62.52
2023-04-11T22:12:54.842Z,62.80
2023-04-11T22:17:58.042Z,62.95
2023-04-11T22:23:02.589Z,63.46
2023-04-11T22:28:05.981Z,63.66
2023-04-11T22:33:09.180Z,63.53
2023-04-11T22:38:14.173Z,63.45
2023-04-11T22:43:17.654Z,63.80
2023-04-11T22:48:20.836Z,64.82
2023-04-11T22:53:25.446Z,65.98
2023-04-11T22:58:28.688Z,64.84
2023-04-11T23:03:31.873Z,65.33
2023-04-11T23:08:36.494Z,65.35
2023-04-11T23:13:39.609Z,64.73
2023-04-11T23:18:42.728Z,65.01
2023-04-11T23:23:47.234Z,64.85
2023-04-11T23:28:50.676Z,64.75
2023-04-11T23:33:54.021Z,65.02
2023-04-11T23:38:58.562Z,64.99
2023-04-11T23:44:01.667Z,65.50
2023-04-11T23:49:05.060Z,65.34
2023-04-11T23:54:09.593Z,66.14
2023-04-11T23:59:12.742Z,65.59
